Time;durP1;ratioP1;P1;durP2;ratioP2;P2;SDS_P1;SDS_P2;PMS_P1;PMS_P2;Temp;Humidity;BMP_temperature;BMP_pressure;BME280_temperature;BME280_humidity;BME280_pressure;Samples;Min_cycle;Max_cycle;Signal;HPM_P1;HPM_P2
2022/05/28 00:01:15;;;;;;;8.63;4.00;;;;;;;22.67;51.26;94464.06;4166439;28;20049;-51
2022/05/28 00:03:18;;;;;;;9.60;4.13;;;;;;;22.67;51.23;94461.38;4176153;28;20286;-51
2022/05/28 00:05:20;;;;;;;7.10;3.80;;;;;;;22.59;51.77;94475.16;4131539;28;1159380;-51
2022/05/28 00:07:21;;;;;;;6.50;4.43;;;;;;;22.27;52.63;94475.59;4164301;28;20049;-52
2022/05/28 00:09:23;;;;;;;6.93;4.47;;;;;;;22.21;52.94;94472.00;4167809;28;20190;-54
2022/05/28 00:11:32;;;;;;;11.25;3.97;;;;;;;22.27;52.65;94457.75;4165885;28;20111;-52
2022/05/28 00:13:34;;;;;;;5.78;4.18;;;;;;;22.34;52.55;94457.59;4160158;28;20160;-52
2022/05/28 00:15:36;;;;;;;7.32;4.68;;;;;;;22.41;52.05;94452.94;4159060;28;20053;-52
2022/05/28 00:17:37;;;;;;;7.13;4.18;;;;;;;22.43;52.16;94450.00;4165768;28;20434;-52
2022/05/28 00:19:39;;;;;;;8.55;4.50;;;;;;;22.46;52.02;94449.56;4174910;28;20118;-50
2022/05/28 00:21:41;;;;;;;7.28;3.78;;;;;;;22.48;52.17;94448.25;4165437;28;20053;-51
2022/05/28 00:23:44;;;;;;;11.07;4.40;;;;;;;22.51;51.91;94452.31;4160293;28;20065;-53
2022/05/28 00:25:47;;;;;;;;;;;;;;;22.51;52.08;94451.50;4160311;28;20050;-53
2022/05/28 00:27:49;;;;;;;12.82;4.90;;;;;;;22.50;52.14;94450.69;4165228;28;19924;-51
2022/05/28 00:29:51;;;;;;;14.90;4.38;;;;;;;22.47;52.30;94449.28;4166515;28;20129;-49
2022/05/28 00:31:53;;;;;;;10.77;4.40;;;;;;;22.49;52.33;94443.72;4160184;28;20068;-53
2022/05/28 00:33:55;;;;;;;5.60;4.43;;;;;;;22.48;52.22;94434.91;4173561;28;20045;-50
2022/05/28 00:35:58;;;;;;;9.13;4.53;;;;;;;22.48;52.05;94429.56;4175489;28;20064;-55
2022/05/28 00:38:00;;;;;;;8.68;4.57;;;;;;;22.48;52.05;94426.91;4171235;28;20064;-53
2022/05/28 00:40:04;;;;;;;11.65;4.43;;;;;;;22.47;52.29;94414.59;4159892;28;20053;-51
2022/05/28 00:42:06;;;;;;;7.00;4.70;;;;;;;22.48;52.19;94407.41;4164281;28;20107;-50
2022/05/28 00:44:09;;;;;;;10.05;4.68;;;;;;;22.47;52.02;94406.59;4159942;28;20627;-50
2022/05/28 00:46:20;;;;;;;7.53;4.35;;;;;;;22.45;52.21;94419.34;4163218;28;20056;-50
2022/05/28 00:48:25;;;;;;;9.52;4.72;;;;;;;22.45;52.38;94411.34;4159297;28;20053;-52
2022/05/28 00:50:27;;;;;;;7.65;4.43;;;;;;;22.42;52.19;94416.38;4160043;28;20449;-51
2022/05/28 00:52:28;;;;;;;8.77;4.63;;;;;;;22.32;52.92;94416.19;4159888;28;20392;-49
2022/05/28 00:54:39;;;;;;;8.52;4.95;;;;;;;22.23;53.20;94411.22;4163195;28;20447;-52
2022/05/28 00:56:40;;;;;;;8.88;4.57;;;;;;;22.14;53.26;94407.31;4165085;28;20052;-54
2022/05/28 00:58:42;;;;;;;6.65;4.40;;;;;;;22.03;53.21;94395.63;4175848;28;20049;-54
2022/05/28 01:00:44;;;;;;;9.07;5.70;;;;;;;21.95;53.52;94396.00;4164239;28;20163;-50
2022/05/28 01:02:57;;;;;;;8.85;5.13;;;;;;;21.82;53.64;94398.94;4172875;28;20049;-52
2022/05/28 01:05:04;;;;;;;7.57;4.38;;;;;;;21.78;53.69;94419.13;4170895;28;20049;-51
2022/05/28 01:07:41;;;;;;;12.48;5.00;;;;;;;21.47;54.64;94437.13;4159704;28;20056;-52
2022/05/28 01:10:07;;;;;;;7.53;4.90;;;;;;;20.89;56.61;94448.53;4171682;28;20417;-55
2022/05/28 01:12:27;;;;;;;9.90;5.20;;;;;;;20.64;57.23;94445.00;4159739;28;20045;-54
2022/05/28 01:14:36;;;;;;;8.60;4.80;;;;;;;20.46;58.02;94437.06;4164341;28;20213;-53
2022/05/28 01:16:48;;;;;;;5.85;4.28;;;;;;;20.41;57.74;94439.56;4157569;28;20053;-52
2022/05/28 01:18:55;;;;;;;12.82;4.80;;;;;;;20.36;58.25;94453.56;4160924;28;20124;-53
2022/05/28 01:21:15;;;;;;;7.45;4.95;;;;;;;20.30;58.33;94474.94;4158091;28;20057;-54
2022/05/28 01:23:24;;;;;;;7.32;4.55;;;;;;;19.50;60.50;94513.00;4157984;28;20111;-55
2022/05/28 01:25:28;;;;;;;10.55;4.55;;;;;;;19.03;61.79;94516.06;4157750;28;20053;-55
2022/05/28 01:27:45;;;;;;;8.63;4.80;;;;;;;19.17;61.47;94503.50;4161763;28;20058;-55
2022/05/28 01:29:49;;;;;;;8.25;5.45;;;;;;;19.44;60.51;94501.41;4163384;28;20053;-57
2022/05/28 01:31:51;;;;;;;7.88;4.90;;;;;;;19.74;59.62;94517.50;4172892;28;20053;-54
2022/05/28 01:33:54;;;;;;;9.15;4.35;;;;;;;19.98;58.79;94512.34;4166827;28;20514;-53
2022/05/28 01:35:56;;;;;;;11.75;5.15;;;;;;;20.20;58.02;94507.41;4164937;28;20053;-53
2022/05/28 01:37:58;;;;;;;7.90;4.82;;;;;;;20.38;57.53;94506.56;4171137;28;20064;-53
2022/05/28 01:40:02;;;;;;;11.60;5.13;;;;;;;20.54;57.07;94502.44;4157237;28;20057;-55
2022/05/28 01:42:06;;;;;;;;;;;;;;;20.68;56.47;94498.59;4159200;28;20050;-54
2022/05/28 01:44:12;;;;;;;8.53;5.27;;;;;;;20.82;56.13;94489.41;4160786;28;19921;-53
2022/05/28 01:46:16;;;;;;;7.47;4.72;;;;;;;20.93;55.76;94498.44;4159727;28;20068;-53
2022/05/28 01:48:20;;;;;;;8.80;4.93;;;;;;;21.03;55.64;94490.69;4161569;28;20131;-55
2022/05/28 01:50:23;;;;;;;6.82;4.40;;;;;;;21.09;55.42;94494.31;4157549;28;20053;-52
2022/05/28 01:52:25;;;;;;;7.93;4.22;;;;;;;21.15;55.29;94488.06;4157228;28;20459;-55
2022/05/28 01:54:32;;;;;;;15.38;4.97;;;;;;;21.18;55.24;94492.13;4160038;28;20057;-56
2022/05/28 01:56:34;;;;;;;8.90;5.20;;;;;;;21.23;54.93;94485.06;4168110;28;20050;-57
2022/05/28 01:58:36;;;;;;;9.35;5.30;;;;;;;21.23;55.20;94485.06;4158761;28;20108;-57
2022/05/28 02:00:38;;;;;;;9.90;4.95;;;;;;;21.26;55.02;94483.78;4169565;28;20099;-52
2022/05/28 02:02:40;;;;;;;14.10;6.03;;;;;;;21.25;55.03;94488.31;4159412;28;20088;-54
2022/05/28 02:04:45;;;;;;;10.77;5.00;;;;;;;21.19;55.08;94491.09;4171517;28;20061;-56
2022/05/28 02:06:47;;;;;;;7.43;4.50;;;;;;;21.18;54.90;94489.44;4159093;28;20122;-54
2022/05/28 02:08:49;;;;;;;13.80;4.68;;;;;;;21.18;54.72;94490.25;4164570;28;20049;-55
2022/05/28 02:11:08;;;;;;;10.45;5.32;;;;;;;21.18;54.23;94484.13;4166186;28;20060;-56
2022/05/28 02:13:26;;;;;;;9.25;4.47;;;;;;;21.16;53.92;94487.00;4157182;28;20049;-56
2022/05/28 02:15:47;;;;;;;9.68;4.43;;;;;;;21.14;53.71;94483.75;4162120;28;20079;-56
2022/05/28 02:17:51;;;;;;;14.23;4.15;;;;;;;21.13;53.51;94486.69;4173848;28;20219;-54
2022/05/28 02:20:28;;;;;;;11.25;4.10;;;;;;;21.14;53.15;94483.75;4162045;28;20057;-55
2022/05/28 02:22:59;;;;;;;11.77;4.50;;;;;;;21.21;52.55;94478.34;4158860;28;20054;-53
2022/05/28 02:25:06;;;;;;;7.97;3.78;;;;;;;21.27;52.38;94480.06;4156875;28;20296;-53
2022/05/28 02:27:12;;;;;;;11.75;4.40;;;;;;;21.30;51.80;94479.63;4161265;28;20054;-54
2022/05/28 02:29:14;;;;;;;11.20;4.03;;;;;;;21.35;51.94;94486.91;4173536;28;20106;-53
2022/05/28 02:31:18;;;;;;;8.80;4.07;;;;;;;21.15;52.16;94496.06;4155368;28;20064;-53
2022/05/28 02:33:21;;;;;;;9.00;3.92;;;;;;;21.07;52.22;94493.72;4173389;28;20540;-53
2022/05/28 02:35:22;;;;;;;13.48;3.90;;;;;;;21.04;52.49;94486.19;4160161;28;20054;-56
2022/05/28 02:37:27;;;;;;;6.95;3.38;;;;;;;21.11;51.79;94481.56;4174706;28;20075;-55
2022/05/28 02:39:29;;;;;;;6.78;3.50;;;;;;;21.19;51.39;94480.44;4166831;28;20415;-53
2022/05/28 02:41:31;;;;;;;7.68;3.30;;;;;;;21.24;51.10;94470.69;4168988;28;20463;-56
2022/05/28 02:43:33;;;;;;;7.68;3.00;;;;;;;21.30;50.89;94462.84;4161470;28;20057;-55
2022/05/28 02:45:34;;;;;;;7.72;3.22;;;;;;;21.37;50.86;94463.53;4169857;28;20488;-56
2022/05/28 02:47:36;;;;;;;8.30;3.28;;;;;;;21.48;50.14;94460.06;4162470;28;20049;-56
2022/05/28 02:49:38;;;;;;;8.18;3.30;;;;;;;21.54;50.10;94459.13;4163073;28;20257;-52
2022/05/28 02:51:41;;;;;;;7.78;3.15;;;;;;;21.61;49.57;94451.00;4158795;28;20058;-56
2022/05/28 02:53:43;;;;;;;5.95;3.00;;;;;;;21.66;49.49;94457.28;4158722;28;20131;-53
2022/05/28 02:55:44;;;;;;;5.63;3.22;;;;;;;21.70;49.46;94472.78;4171432;28;20110;-56
2022/05/28 02:57:46;;;;;;;11.43;3.25;;;;;;;21.69;49.22;94477.31;4159395;28;20156;-55
2022/05/28 02:59:48;;;;;;;10.80;3.78;;;;;;;21.74;49.19;94474.75;4166949;28;20070;-55
2022/05/28 03:01:50;;;;;;;6.88;3.45;;;;;;;21.75;49.33;94470.25;4168050;28;20045;-54
2022/05/28 03:03:53;;;;;;;8.82;3.28;;;;;;;21.78;49.27;94461.78;4160919;28;20049;-56
2022/05/28 03:05:55;;;;;;;8.63;3.10;;;;;;;21.83;49.64;94467.22;4162898;28;20050;-55
2022/05/28 03:07:56;;;;;;;9.13;4.40;;;;;;;21.81;49.40;94467.47;4173325;28;20041;-54
2022/05/28 03:09:58;;;;;;;7.07;3.42;;;;;;;21.65;49.80;94460.16;4174570;28;20045;-55
2022/05/28 03:12:00;;;;;;;8.27;3.75;;;;;;;21.66;49.98;94461.78;4161401;28;20405;-54
2022/05/28 03:14:02;;;;;;;8.48;3.55;;;;;;;21.68;49.94;94457.03;4176749;28;20504;-54
2022/05/28 03:16:04;;;;;;;11.15;3.65;;;;;;;21.76;50.08;94466.53;4166386;28;20148;-55
2022/05/28 03:18:06;;;;;;;7.28;3.72;;;;;;;21.82;50.03;94470.94;4173178;28;20057;-53
2022/05/28 03:20:08;;;;;;;9.13;3.95;;;;;;;21.85;49.90;94476.63;4162277;28;20119;-54
2022/05/28 03:22:10;;;;;;;8.25;3.60;;;;;;;21.88;49.52;94472.66;4161022;28;20050;-55
2022/05/28 03:24:12;;;;;;;9.50;3.50;;;;;;;21.92;49.53;94472.97;4166979;28;20113;-53
2022/05/28 03:26:21;;;;;;;6.82;3.58;;;;;;;21.98;49.72;94466.72;4167833;28;20050;-54
2022/05/28 03:28:23;;;;;;;8.00;3.90;;;;;;;22.03;49.51;94466.84;4161357;28;20057;-53
2022/05/28 03:30:25;;;;;;;8.63;3.83;;;;;;;22.07;49.35;94462.66;4172850;28;20053;-56
2022/05/28 03:32:26;;;;;;;6.68;3.95;;;;;;;22.07;49.29;94458.13;4161105;28;20049;-53
2022/05/28 03:34:28;;;;;;;6.40;3.55;;;;;;;22.10;49.24;94456.84;4167909;28;20106;-50
2022/05/28 03:36:30;;;;;;;13.25;3.63;;;;;;;22.12;49.11;94453.94;4177341;28;20044;-54
2022/05/28 03:38:33;;;;;;;8.27;3.20;;;;;;;22.15;48.99;94456.13;4167863;28;20424;-54
2022/05/28 03:40:34;;;;;;;11.17;4.13;;;;;;;22.16;49.10;94460.44;4160111;28;20080;-55
2022/05/28 03:42:36;;;;;;;8.68;3.70;;;;;;;22.19;49.36;94463.41;4165051;28;20286;-53
2022/05/28 03:44:38;;;;;;;7.15;3.40;;;;;;;22.24;49.18;94465.41;4174069;28;20130;-54
2022/05/28 03:46:39;;;;;;;8.50;3.78;;;;;;;22.25;49.43;94459.03;4165993;28;20099;-54
2022/05/28 03:48:41;;;;;;;13.07;4.00;;;;;;;22.22;49.56;94451.44;4166062;28;20053;-55
2022/05/28 03:50:43;;;;;;;5.80;3.40;;;;;;;22.22;49.65;94446.97;4166892;28;20050;-54
2022/05/28 03:52:45;;;;;;;11.85;4.38;;;;;;;22.25;49.79;94443.03;4160389;28;20049;-53
2022/05/28 03:54:46;;;;;;;7.55;3.70;;;;;;;22.26;49.40;94440.13;4168548;28;20048;-53
2022/05/28 03:56:49;;;;;;;12.43;3.70;;;;;;;22.29;50.06;94436.16;4166384;28;20049;-54
2022/05/28 03:58:51;;;;;;;12.27;4.20;;;;;;;22.33;49.72;94437.31;4171659;28;20099;-56
2022/05/28 04:00:53;;;;;;;7.40;3.40;;;;;;;22.35;49.79;94435.22;4160187;28;20053;-54
2022/05/28 04:02:55;;;;;;;8.02;3.97;;;;;;;22.37;49.55;94430.44;4163838;28;20053;-56
2022/05/28 04:04:56;;;;;;;6.25;3.25;;;;;;;22.40;49.56;94423.81;4169076;28;20053;-53
2022/05/28 04:07:00;;;;;;;9.25;3.72;;;;;;;22.43;49.10;94429.47;4162658;28;20061;-51
2022/05/28 04:09:03;;;;;;;7.90;3.70;;;;;;;22.49;49.20;94431.19;4167091;28;20561;-56
2022/05/28 04:11:05;;;;;;;10.77;3.97;;;;;;;22.55;48.97;94421.41;4165918;28;20115;-54
2022/05/28 04:13:06;;;;;;;11.10;4.15;;;;;;;22.61;49.11;94422.31;4160117;28;20671;-55
2022/05/28 04:15:09;;;;;;;6.57;3.30;;;;;;;22.62;48.75;94427.41;4174091;28;20049;-55
2022/05/28 04:17:11;;;;;;;6.63;3.57;;;;;;;22.61;48.76;94425.00;4172006;28;20045;-55
2022/05/28 04:19:13;;;;;;;9.68;3.33;;;;;;;22.51;48.46;94441.63;4164772;28;20327;-52
2022/05/28 04:21:15;;;;;;;5.55;3.58;;;;;;;22.28;48.84;94462.03;4165916;28;20053;-50
2022/05/28 04:23:17;;;;;;;11.90;3.70;;;;;;;21.64;50.68;94483.34;4160171;28;20111;-55
2022/05/28 04:25:18;;;;;;;8.45;3.53;;;;;;;20.50;53.85;94522.56;4159315;28;20053;-55
2022/05/28 04:27:20;;;;;;;14.25;4.13;;;;;;;19.66;55.93;94533.72;4164494;28;20111;-54
2022/05/28 04:29:22;;;;;;;15.05;3.70;;;;;;;19.48;56.57;94476.03;4169111;28;20049;-53
2022/05/28 04:31:24;;;;;;;11.27;3.42;;;;;;;19.69;55.56;94426.97;4159011;28;20672;-53
2022/05/28 04:33:26;;;;;;;7.43;3.13;;;;;;;19.98;55.14;94422.78;4172553;28;20068;-52
2022/05/28 04:35:28;;;;;;;10.75;3.47;;;;;;;20.27;54.64;94420.34;4161939;28;20631;-55
2022/05/28 04:37:30;;;;;;;9.00;3.47;;;;;;;20.49;53.93;94411.84;4176525;28;20057;-56
2022/05/28 04:39:31;;;;;;;12.20;3.38;;;;;;;20.65;53.94;94408.56;4167412;28;20045;-55
2022/05/28 04:41:33;;;;;;;18.02;3.97;;;;;;;20.80;53.82;94408.94;4170551;28;20056;-56
2022/05/28 04:43:35;;;;;;;5.65;2.88;;;;;;;20.96;53.52;94422.63;4176009;28;20261;-54
2022/05/28 04:45:37;;;;;;;10.68;3.30;;;;;;;21.11;52.76;94433.63;4172153;28;20048;-54
2022/05/28 04:47:39;;;;;;;8.32;3.40;;;;;;;21.19;51.97;94448.47;4157776;28;20439;-56
2022/05/28 04:49:41;;;;;;;11.10;3.20;;;;;;;20.73;52.75;94458.00;4163712;28;20474;-55
2022/05/28 04:51:42;;;;;;;9.02;3.50;;;;;;;20.51;53.44;94465.66;4162682;28;20661;-53
2022/05/28 04:53:45;;;;;;;8.18;3.75;;;;;;;20.42;53.77;94468.63;4159581;28;20095;-54
2022/05/28 04:55:47;;;;;;;9.18;2.85;;;;;;;20.44;53.75;94465.75;4158469;28;20107;-55
2022/05/28 04:57:52;;;;;;;7.20;3.13;;;;;;;20.31;54.19;94458.75;4159487;28;20045;-57
2022/05/28 04:59:54;;;;;;;11.02;3.25;;;;;;;20.29;54.45;94457.38;4158105;28;20450;-54
2022/05/28 05:01:55;;;;;;;8.15;3.28;;;;;;;20.39;54.45;94463.78;4159140;28;20056;-56
2022/05/28 05:03:57;;;;;;;8.77;3.17;;;;;;;20.26;54.72;94482.53;4172210;28;20056;-54
2022/05/28 05:05:59;;;;;;;7.78;3.70;;;;;;;20.13;55.31;94488.84;4159343;28;20165;-55
2022/05/28 05:08:01;;;;;;;8.27;3.83;;;;;;;19.76;56.64;94501.34;4164575;28;20891;-54
2022/05/28 05:10:03;;;;;;;11.00;4.20;;;;;;;19.73;56.91;94491.16;4173197;28;20044;-55
2022/05/28 05:12:05;;;;;;;5.72;3.70;;;;;;;19.90;56.73;94486.88;4159228;28;20049;-55
2022/05/28 05:14:07;;;;;;;9.38;3.88;;;;;;;20.17;56.26;94474.06;4159748;28;20118;-55
2022/05/28 05:16:11;;;;;;;8.98;3.63;;;;;;;20.45;55.79;94481.47;4158064;28;20053;-53
2022/05/28 05:18:13;;;;;;;14.27;3.83;;;;;;;20.72;55.12;94480.34;4172838;28;20053;-54
2022/05/28 05:20:15;;;;;;;12.63;3.75;;;;;;;20.90;54.65;94480.25;4160801;28;20049;-56
2022/05/28 05:22:17;;;;;;;12.20;3.33;;;;;;;21.09;54.16;94477.53;4170684;28;20053;-55
2022/05/28 05:24:19;;;;;;;9.60;3.90;;;;;;;21.19;53.80;94477.78;4157676;28;20122;-55
2022/05/28 05:26:21;;;;;;;9.50;4.47;;;;;;;21.32;53.58;94482.88;4162216;28;20133;-54
2022/05/28 05:28:23;;;;;;;10.60;4.00;;;;;;;21.41;53.42;94483.34;4159060;28;20128;-56
2022/05/28 05:30:25;;;;;;;12.05;4.53;;;;;;;21.50;53.24;94487.28;4157103;28;20053;-54
2022/05/28 05:32:27;;;;;;;11.25;4.30;;;;;;;21.60;53.25;94490.19;4163397;28;20520;-54
2022/05/28 05:34:29;;;;;;;11.52;5.45;;;;;;;21.75;53.11;94488.91;4174879;28;20417;-54
2022/05/28 05:36:30;;;;;;;16.08;4.25;;;;;;;21.80;52.82;94499.69;4165625;28;20157;-53
2022/05/28 05:38:32;;;;;;;7.10;4.35;;;;;;;21.36;53.92;94499.19;4171554;28;20110;-55
2022/05/28 05:40:35;;;;;;;11.68;4.55;;;;;;;20.88;55.44;94500.97;4161726;28;20048;-54
2022/05/28 05:42:37;;;;;;;11.23;4.80;;;;;;;20.67;56.53;94507.59;4169760;28;20053;-52
2022/05/28 05:44:39;;;;;;;14.13;4.85;;;;;;;20.81;56.29;94509.06;4166409;28;20114;-56
2022/05/28 05:46:42;;;;;;;13.00;4.68;;;;;;;21.04;55.78;94495.00;4164548;28;20057;-52
2022/05/28 05:48:43;;;;;;;13.07;5.18;;;;;;;21.26;55.07;94489.13;4158368;28;20134;-53
2022/05/28 05:50:45;;;;;;;7.63;3.85;;;;;;;21.50;54.44;94487.28;4168078;28;20134;-54
2022/05/28 05:52:47;;;;;;;6.93;4.00;;;;;;;21.77;53.91;94486.81;4170771;28;20049;-54
2022/05/28 05:54:50;;;;;;;9.32;3.58;;;;;;;21.94;53.43;94482.41;4166251;28;20045;-55
2022/05/28 05:56:53;;;;;;;8.20;3.97;;;;;;;22.17;53.15;94483.38;4159038;28;20489;-54
2022/05/28 05:58:54;;;;;;;17.17;5.30;;;;;;;22.24;52.48;94473.41;4159345;28;20053;-55
2022/05/28 06:00:56;;;;;;;12.25;6.15;;;;;;;22.29;52.83;94474.31;4157532;28;20206;-57
2022/05/28 06:02:58;;;;;;;8.55;3.83;;;;;;;22.43;51.87;94479.38;4158706;28;20049;-55
2022/05/28 06:04:59;;;;;;;16.25;4.22;;;;;;;22.49;51.77;94479.22;4158999;28;20490;-54
2022/05/28 06:07:04;;;;;;;11.68;4.18;;;;;;;22.55;51.56;94474.00;4159037;28;20127;-56
2022/05/28 06:09:06;;;;;;;9.05;3.95;;;;;;;22.66;51.20;94470.47;4166810;28;20370;-56
2022/05/28 06:11:08;;;;;;;10.50;3.85;;;;;;;22.79;51.57;94458.66;4174825;28;20119;-56
2022/05/28 06:13:09;;;;;;;11.25;4.22;;;;;;;22.94;51.55;94460.78;4175233;28;20391;-54
2022/05/28 06:15:12;;;;;;;8.60;4.53;;;;;;;23.08;51.20;94456.75;4172834;28;20053;-55
2022/05/28 06:17:14;;;;;;;11.10;4.47;;;;;;;23.20;50.81;94454.03;4175597;28;20052;-56
2022/05/28 06:19:16;;;;;;;9.48;4.28;;;;;;;23.33;50.79;94445.66;4171891;28;20136;-53
2022/05/28 06:21:18;;;;;;;8.07;4.30;;;;;;;23.42;50.36;94446.88;4175232;28;20110;-56
2022/05/28 06:23:20;;;;;;;10.50;4.35;;;;;;;23.47;50.27;94449.63;4175314;28;20151;-54
2022/05/28 06:25:21;;;;;;;10.27;4.30;;;;;;;23.57;50.52;94442.81;4158605;28;20417;-56
2022/05/28 06:27:23;;;;;;;8.63;4.68;;;;;;;23.67;50.91;94441.06;4158494;28;20209;-53
2022/05/28 06:29:25;;;;;;;9.23;4.45;;;;;;;23.79;50.69;94437.50;4158360;28;20107;-56
2022/05/28 06:31:27;;;;;;;13.18;4.80;;;;;;;23.85;50.04;94441.88;4157382;28;20126;-55
2022/05/28 06:33:29;;;;;;;12.98;4.70;;;;;;;23.85;50.35;94436.50;4160128;28;20053;-53
2022/05/28 06:35:31;;;;;;;11.50;4.57;;;;;;;23.93;50.44;94444.13;4161596;28;20470;-56
2022/05/28 06:37:33;;;;;;;9.23;4.30;;;;;;;24.04;49.94;94439.69;4168400;28;20069;-52
2022/05/28 06:39:35;;;;;;;14.27;4.68;;;;;;;24.15;49.64;94433.41;4169340;28;20049;-53
2022/05/28 06:41:37;;;;;;;12.20;4.47;;;;;;;24.26;48.98;94434.31;4161654;28;20053;-54
2022/05/28 06:43:39;;;;;;;8.90;3.70;;;;;;;24.30;49.11;94425.53;4161536;28;20053;-55
2022/05/28 06:45:41;;;;;;;11.02;4.53;;;;;;;24.38;49.11;94426.97;4173829;28;20048;-56
2022/05/28 06:47:43;;;;;;;12.40;4.70;;;;;;;24.39;49.23;94417.88;4167396;28;20053;-57
2022/05/28 06:51:01;;;;;;;16.25;5.03;;;;;;;24.34;49.14;94409.78;4178253;28;20601;-53
2022/05/28 06:52:07;;;;;;;8.55;4.65;;;;;;;24.35;49.15;94413.28;4165121;28;20080;-53
2022/05/28 06:54:08;;;;;;;11.23;5.13;;;;;;;24.28;49.36;94405.44;4173756;28;20570;-55
2022/05/28 06:56:11;;;;;;;8.70;4.82;;;;;;;24.07;49.30;94397.22;4177501;28;20068;-55
2022/05/28 06:58:14;;;;;;;12.38;5.35;;;;;;;24.12;49.98;94391.09;4178147;28;20048;-54
2022/05/28 07:00:16;;;;;;;10.57;5.72;;;;;;;24.25;50.08;94395.25;4171649;28;20099;-53
2022/05/28 07:02:18;;;;;;;14.23;5.45;;;;;;;24.41;50.42;94380.13;4161135;28;20709;-55
2022/05/28 07:04:20;;;;;;;14.55;5.38;;;;;;;24.51;50.46;94382.94;4159757;28;20058;-55
2022/05/28 07:06:21;;;;;;;12.45;5.43;;;;;;;24.51;50.41;94380.28;4161199;28;20045;-53
2022/05/28 07:08:24;;;;;;;10.15;5.47;;;;;;;24.48;51.03;94384.28;4162842;28;20428;-55
2022/05/28 07:10:26;;;;;;;12.10;4.82;;;;;;;24.64;50.51;94385.22;4177395;28;20049;-56
2022/05/28 07:12:28;;;;;;;9.20;5.30;;;;;;;24.76;49.49;94371.66;4169315;28;20123;-57
2022/05/28 07:14:30;;;;;;;12.00;4.70;;;;;;;24.82;48.49;94367.94;4161125;28;20041;-57
2022/05/28 07:16:31;;;;;;;7.80;4.90;;;;;;;24.69;48.64;94368.38;4160193;28;20118;-55
2022/05/28 07:18:35;;;;;;;9.32;5.05;;;;;;;24.52;48.31;94358.59;4175052;28;20102;-55
2022/05/28 07:20:37;;;;;;;9.13;4.43;;;;;;;24.40;48.82;94360.59;4177208;28;20470;-51
2022/05/28 07:22:39;;;;;;;14.02;4.30;;;;;;;24.48;47.96;94364.69;4169574;28;20466;-55
2022/05/28 07:24:41;;;;;;;8.20;4.28;;;;;;;24.62;47.50;94365.09;4171053;28;20198;-56
2022/05/28 07:26:43;;;;;;;11.75;4.75;;;;;;;24.75;47.11;94371.91;4169870;28;20148;-55
2022/05/28 07:28:45;;;;;;;10.43;4.18;;;;;;;24.92;46.76;94369.91;4160388;28;20981;-54
2022/05/28 07:30:47;;;;;;;7.90;3.60;;;;;;;24.57;46.96;94362.41;4159476;28;20132;-53
2022/05/28 07:32:49;;;;;;;11.85;4.20;;;;;;;24.15;46.82;94371.03;4168408;28;20053;-54
2022/05/28 07:34:51;;;;;;;13.20;4.00;;;;;;;24.30;46.85;94363.16;4177157;28;20044;-54
2022/05/28 07:36:53;;;;;;;8.90;3.70;;;;;;;24.45;46.44;94357.97;4176911;28;20056;-53
2022/05/28 07:38:55;;;;;;;11.75;4.25;;;;;;;24.71;45.96;94356.34;4174118;28;20132;-54
2022/05/28 07:41:02;;;;;;;10.23;4.18;;;;;;;24.70;45.44;94357.41;4160356;28;20064;-55
2022/05/28 07:43:04;;;;;;;14.70;4.43;;;;;;;24.94;45.09;94360.53;4170156;28;20543;-57
2022/05/28 07:45:06;;;;;;;14.50;4.00;;;;;;;25.22;44.97;94355.94;4163114;28;20123;-57
2022/05/28 07:47:08;;;;;;;8.30;3.88;;;;;;;25.47;44.06;94366.00;4174641;28;20217;-55
2022/05/28 07:49:10;;;;;;;8.18;3.97;;;;;;;25.56;43.50;94371.69;4160938;28;20068;-56
2022/05/28 07:51:12;;;;;;;9.35;4.13;;;;;;;25.54;43.55;94369.25;4167156;28;20053;-56
2022/05/28 07:53:14;;;;;;;11.55;4.10;;;;;;;25.40;44.17;94364.63;4171233;28;20200;-54
2022/05/28 07:55:16;;;;;;;9.95;4.30;;;;;;;25.52;44.80;94366.03;4162108;28;20046;-55
2022/05/28 07:57:17;;;;;;;10.73;4.10;;;;;;;25.76;44.13;94354.88;4173729;28;20045;-55
2022/05/28 07:59:19;;;;;;;12.65;4.05;;;;;;;25.24;44.61;94359.16;4160284;28;20111;-55
2022/05/28 08:01:23;;;;;;;10.80;4.30;;;;;;;25.27;45.00;94350.59;4159183;28;20446;-55
2022/05/28 08:03:25;;;;;;;9.90;4.53;;;;;;;25.12;45.85;94347.78;4169762;28;20127;-55
2022/05/28 08:05:27;;;;;;;11.30;5.03;;;;;;;24.92;46.19;94337.75;4164556;28;20061;-53
2022/05/28 08:07:29;;;;;;;9.25;4.68;;;;;;;24.85;47.21;94346.00;4159890;28;20532;-55
2022/05/28 08:09:30;;;;;;;12.90;4.72;;;;;;;25.09;47.31;94337.59;4171978;28;20122;-54
2022/05/28 08:11:32;;;;;;;9.80;5.22;;;;;;;25.03;47.46;94342.09;4161923;28;20442;-56
2022/05/28 08:13:34;;;;;;;10.38;4.80;;;;;;;25.14;46.82;94346.50;4160117;28;20061;-55
2022/05/28 08:15:38;;;;;;;11.90;5.20;;;;;;;24.98;47.62;94341.28;4164343;28;20116;-56
2022/05/28 08:17:40;;;;;;;9.55;5.10;;;;;;;25.06;47.33;94335.41;4167808;28;20123;-54
2022/05/28 08:19:42;;;;;;;14.77;4.88;;;;;;;25.08;47.19;94344.84;4168265;28;20517;-56
2022/05/28 08:24:04;;;;;;;10.65;4.60;;;;;;;25.64;46.12;94344.38;4171084;28;20053;-55
2022/05/28 08:26:06;;;;;;;10.05;4.28;;;;;;;25.91;45.66;94335.38;4160087;28;20466;-55
2022/05/28 08:28:10;;;;;;;7.82;4.47;;;;;;;26.12;44.72;94337.03;4159753;28;20127;-56
2022/05/28 08:30:12;;;;;;;;;;;;;;;26.27;44.04;94338.16;4172491;28;20773;-57
2022/05/28 08:32:16;;;;;;;9.00;4.03;;;;;;;26.33;43.52;94332.50;4162696;28;19936;-55
2022/05/28 08:34:18;;;;;;;11.35;4.72;;;;;;;26.23;42.60;94332.50;4170322;28;20494;-54
2022/05/28 08:36:20;;;;;;;11.77;4.35;;;;;;;26.36;42.79;94328.47;4160152;28;20053;-54
2022/05/28 08:38:23;;;;;;;11.48;4.53;;;;;;;26.51;43.23;94335.75;4173192;28;20053;-54
2022/05/28 08:40:25;;;;;;;11.35;4.63;;;;;;;26.70;42.53;94325.31;4161747;28;20127;-56
2022/05/28 08:42:27;;;;;;;6.05;3.80;;;;;;;26.94;42.65;94328.25;4171717;28;20458;-57
2022/05/28 08:44:32;;;;;;;13.07;4.43;;;;;;;26.96;41.78;94329.59;4166731;28;20045;-58
2022/05/28 08:46:36;;;;;;;9.60;4.47;;;;;;;26.95;42.10;94325.31;4175656;28;20535;-55
2022/05/28 08:48:43;;;;;;;11.93;4.32;;;;;;;26.60;42.07;94328.78;4163032;28;20045;-54
2022/05/28 08:50:54;;;;;;;13.68;4.57;;;;;;;26.34;42.90;94328.75;4158124;28;20497;-56
2022/05/28 08:53:12;;;;;;;9.48;4.07;;;;;;;26.49;41.71;94322.59;4164974;28;20962;-57
2022/05/28 08:55:20;;;;;;;10.73;4.20;;;;;;;26.55;43.00;94324.19;4163732;28;20462;-53
2022/05/28 08:57:22;;;;;;;10.57;4.78;;;;;;;26.09;44.11;94320.63;4171779;28;20103;-56
2022/05/28 08:59:28;;;;;;;9.15;4.57;;;;;;;25.98;44.08;94324.38;4163373;28;20091;-57
2022/05/28 09:01:38;;;;;;;10.48;4.20;;;;;;;26.10;45.15;94323.06;4174573;28;20055;-57
2022/05/28 09:03:48;;;;;;;9.05;4.50;;;;;;;25.67;45.88;94314.31;4163397;28;20049;-56
2022/05/28 09:05:58;;;;;;;14.60;5.00;;;;;;;25.57;46.58;94319.63;4157491;28;20431;-56
2022/05/28 09:08:03;;;;;;;14.13;4.53;;;;;;;25.54;47.00;94326.34;4162556;28;20103;-53
2022/05/28 09:10:05;;;;;;;13.70;4.72;;;;;;;25.50;46.53;94335.97;4174521;28;20117;-55
2022/05/28 09:12:10;;;;;;;17.35;5.35;;;;;;;25.44;46.69;94320.91;4174233;28;20415;-56
2022/05/28 09:14:17;;;;;;;14.70;5.20;;;;;;;25.58;46.48;94315.91;4167830;28;20050;-56
2022/05/28 09:16:28;;;;;;;13.57;4.88;;;;;;;25.56;46.83;94301.94;4157578;28;20465;-56
2022/05/28 09:18:35;;;;;;;10.73;4.43;;;;;;;25.72;46.02;94305.47;4157708;28;20062;-55
2022/05/28 09:20:40;;;;;;;12.38;5.00;;;;;;;25.64;46.37;94305.97;4164142;28;20049;-54
2022/05/28 09:22:42;;;;;;;13.52;5.18;;;;;;;25.63;46.12;94290.97;4167517;28;20147;-57
2022/05/28 09:24:44;;;;;;;15.55;5.00;;;;;;;25.84;46.27;94302.59;4170117;28;20064;-57
2022/05/28 09:27:05;;;;;;;11.55;4.70;;;;;;;26.13;45.46;94301.06;4175410;28;20136;-54
2022/05/28 09:29:40;;;;;;;14.93;6.63;;;;;;;26.08;44.92;94292.19;4162574;28;20087;-56
2022/05/28 09:31:44;;;;;;;;;;;;;;;26.44;44.49;94286.88;4163967;28;20069;-57
2022/05/28 09:34:04;;;;;;;19.05;5.97;;;;;;;26.36;44.62;94280.16;4172817;28;19942;-56
2022/05/28 09:36:06;;;;;;;20.35;7.50;;;;;;;26.09;44.90;94277.69;4160073;28;20505;-54
2022/05/28 09:38:11;;;;;;;17.75;5.72;;;;;;;26.39;44.62;94276.91;4170437;28;20061;-56
2022/05/28 09:40:16;;;;;;;11.43;5.47;;;;;;;26.54;43.32;94274.25;4161031;28;20057;-57
2022/05/28 09:42:28;;;;;;;15.13;4.75;;;;;;;26.16;43.39;94272.88;4161932;28;20048;-54
2022/05/28 09:44:54;;;;;;;17.75;5.25;;;;;;;25.95;44.35;94272.84;4167624;28;20099;-53